This is the latest recevied weather packets stored in our database for station/object 9W2KHE-10. If no packets are shown the sender has not sent any weather packets the latest 10 day(s).
| Time | Temp. | Humidity | Pressure | Rain* | Wind** | Luminosity | Snow |
|---|---|---|---|---|---|---|---|
| 1777243044 | 27.78° C | 66% | 1010.1 hPa | - | - | - | - |
| 1777242144 | 27.78° C | 65% | 1009.9 hPa | - | - | - | - |
| 1777241243 | 28.33° C | 65% | 1009.7 hPa | - | - | - | - |
| 1777240343 | 28.33° C | 64% | 1009.5 hPa | - | - | - | - |
| 1777239443 | 28.33° C | 64% | 1009.5 hPa | - | - | - | - |
| 1777238543 | 28.89° C | 62% | 1009.4 hPa | - | - | - | - |
| 1777237643 | 31.11° C | 56% | 1009.2 hPa | - | - | - | - |
| 1777212032 | 30° C | 65% | 1011.3 hPa | - | - | - | - |
| 1777211136 | 30° C | 65% | 1011.3 hPa | - | - | - | - |
| 1777210236 | 30° C | 65% | 1011.2 hPa | - | - | - | - |
| 1777209336 | 30° C | 66% | 1011.2 hPa | - | - | - | - |
| 1777208436 | 30° C | 66% | 1010.9 hPa | - | - | - | - |
| 1777207535 | 30° C | 65% | 1010.8 hPa | - | - | - | - |
| 1777206635 | 30° C | 65% | 1010.7 hPa | - | - | - | - |
| 1777205735 | 30° C | 65% | 1010.5 hPa | - | - | - | - |
| 1777204835 | 30° C | 65% | 1010.2 hPa | - | - | - | - |
| 1777203934 | 30° C | 66% | 1009.9 hPa | - | - | - | - |
| 1777203034 | 30.56° C | 65% | 1009.8 hPa | - | - | - | - |
| 1777202134 | 30.56° C | 65% | 1009.5 hPa | - | - | - | - |
| 1777201234 | 30.56° C | 64% | 1009.2 hPa | - | - | - | - |
| 1777200334 | 30.56° C | 64% | 1009.2 hPa | - | - | - | - |
| 1777199434 | 30.56° C | 64% | 1009.1 hPa | - | - | - | - |
| 1777198534 | 30.56° C | 64% | 1009 hPa | - | - | - | - |
| 1777197634 | 30.56° C | 64% | 1009 hPa | - | - | - | - |
| 1777196733 | 30.56° C | 64% | 1008.7 hPa | - | - | - | - |
* Rain since midnight (hover to see other rain measurements)
** Current wind speed in m/s (hover to see current wind gust speed)